createdAt,value
2022-09-23T00:01:29.690Z,9.10
2022-09-23T00:03:59.831Z,9.10
2022-09-23T00:06:30.823Z,8.00
2022-09-23T00:08:58.974Z,9.90
2022-09-23T00:11:28.656Z,7.90
2022-09-23T00:13:59.935Z,8.30
2022-09-23T00:16:34.164Z,7.50
2022-09-23T00:19:04.048Z,9.40
2022-09-23T00:21:32.202Z,10.10
2022-09-23T00:24:00.386Z,11.10
2022-09-23T00:26:28.707Z,8.80
2022-09-23T00:28:56.896Z,7.00
2022-09-23T00:31:27.447Z,9.20
2022-09-23T00:34:01.587Z,6.90
2022-09-23T00:36:32.359Z,7.40
2022-09-23T00:39:00.641Z,7.60
2022-09-23T00:41:28.893Z,7.00
2022-09-23T00:44:00.449Z,6.90
2022-09-23T00:46:43.699Z,7.00
2022-09-23T00:49:30.928Z,8.40
2022-09-23T00:52:09.282Z,8.40
2022-09-23T00:54:38.093Z,6.40
2022-09-23T00:57:07.021Z,5.70
2022-09-23T00:59:36.470Z,7.50
2022-09-23T01:02:05.875Z,8.50
2022-09-23T01:04:34.881Z,5.50
2022-09-23T01:07:03.063Z,6.70
2022-09-23T01:09:31.316Z,7.60
2022-09-23T01:12:27.247Z,6.80
2022-09-23T01:15:32.605Z,6.40
2022-09-23T01:18:41.499Z,6.30
2022-09-23T01:21:39.851Z,5.90
2022-09-23T01:24:26.272Z,5.80
2022-09-23T01:27:17.834Z,5.50
2022-09-23T01:30:13.013Z,5.30
2022-09-23T01:33:25.409Z,4.40
2022-09-23T01:36:23.003Z,6.50
2022-09-23T01:39:00.256Z,6.20
2022-09-23T01:41:47.205Z,4.50
2022-09-23T01:44:29.492Z,5.20
2022-09-23T01:47:02.452Z,5.00
2022-09-23T01:50:30.531Z,5.30
2022-09-23T01:53:06.357Z,6.20
2022-09-23T01:55:41.167Z,4.60
2022-09-23T01:58:31.908Z,5.90
2022-09-23T02:01:05.110Z,7.00
2022-09-23T02:03:59.744Z,6.40
2022-09-23T02:06:35.833Z,5.90
2022-09-23T02:09:16.432Z,5.30
2022-09-23T02:11:48.748Z,5.60
2022-09-23T02:14:31.484Z,4.90
2022-09-23T02:17:09.112Z,4.10
2022-09-23T02:19:55.799Z,6.80
2022-09-23T02:22:40.889Z,3.80
2022-09-23T02:25:12.514Z,6.90
2022-09-23T02:28:02.495Z,4.70
2022-09-23T02:30:41.956Z,6.00
2022-09-23T02:33:46.358Z,6.90
2022-09-23T02:36:31.525Z,7.50
2022-09-23T02:39:08.745Z,5.30
2022-09-23T02:42:02.513Z,5.90
2022-09-23T02:44:33.083Z,5.90
2022-09-23T02:47:01.285Z,5.80
2022-09-23T02:49:32.171Z,4.40
2022-09-23T02:52:05.616Z,5.20
2022-09-23T02:54:35.532Z,4.70
2022-09-23T02:57:07.125Z,8.20
2022-09-23T02:59:37.058Z,5.70
2022-09-23T03:02:33.032Z,5.10
2022-09-23T03:05:09.900Z,3.50
2022-09-23T03:08:12.987Z,4.10
2022-09-23T03:11:13.116Z,3.40
2022-09-23T03:14:29.065Z,4.80
2022-09-23T03:17:12.772Z,5.80
2022-09-23T03:19:50.799Z,3.60
2022-09-23T03:22:27.312Z,4.10
2022-09-23T03:25:02.184Z,4.00
2022-09-23T03:27:33.044Z,4.50
2022-09-23T03:30:02.665Z,3.50
2022-09-23T03:32:32.375Z,4.50
2022-09-23T03:35:03.299Z,5.30
2022-09-23T03:37:54.114Z,4.50
2022-09-23T03:40:30.199Z,5.90
2022-09-23T03:43:01.566Z,4.40
2022-09-23T03:45:34.388Z,4.50
2022-09-23T03:48:02.622Z,5.00
2022-09-23T03:50:30.780Z,7.30
2022-09-23T03:52:59.397Z,7.20
2022-09-23T03:55:27.818Z,8.40
2022-09-23T03:57:55.978Z,6.40
2022-09-23T04:00:24.078Z,6.00
2022-09-23T04:02:52.316Z,6.00
2022-09-23T04:05:20.413Z,6.30
2022-09-23T04:07:49.243Z,5.80
2022-09-23T04:10:17.383Z,5.30
2022-09-23T04:12:45.505Z,5.90
2022-09-23T04:15:13.634Z,5.10
2022-09-23T04:17:41.958Z,7.50
2022-09-23T04:20:10.249Z,3.90
2022-09-23T04:22:38.731Z,5.00
2022-09-23T04:25:08.153Z,8.30
2022-09-23T04:27:37.860Z,7.50
2022-09-23T04:30:07.384Z,9.40
2022-09-23T04:32:37.093Z,8.60
2022-09-23T04:35:06.697Z,7.00
2022-09-23T04:37:34.929Z,4.80
2022-09-23T04:40:03.997Z,4.40
2022-09-23T04:42:32.263Z,9.00
2022-09-23T04:45:00.461Z,9.70
2022-09-23T04:47:28.667Z,6.10
2022-09-23T04:49:59.879Z,6.50
2022-09-23T04:52:31.308Z,7.90
2022-09-23T04:54:59.396Z,5.80
2022-09-23T04:57:28.261Z,5.90
2022-09-23T04:59:57.525Z,5.40
2022-09-23T05:02:25.784Z,11.30
2022-09-23T05:04:55.052Z,5.90
2022-09-23T05:07:23.128Z,4.00
2022-09-23T05:09:51.249Z,4.30
2022-09-23T05:12:19.330Z,6.00
2022-09-23T05:14:47.452Z,6.10
2022-09-23T05:17:15.581Z,5.90
2022-09-23T05:19:43.683Z,7.90
2022-09-23T05:22:11.798Z,6.50
2022-09-23T05:24:39.898Z,5.50
2022-09-23T05:27:08.059Z,6.30
2022-09-23T05:29:36.220Z,6.30
2022-09-23T05:32:04.789Z,6.10
2022-09-23T05:34:33.089Z,8.80
2022-09-23T05:37:01.210Z,7.30
2022-09-23T05:39:29.496Z,6.40
2022-09-23T05:42:00.075Z,6.50
2022-09-23T05:44:28.216Z,6.40
2022-09-23T05:46:56.547Z,6.90
2022-09-23T05:49:37.932Z,6.30
2022-09-23T05:52:12.932Z,6.80
2022-09-23T05:54:41.349Z,8.20
2022-09-23T05:57:09.580Z,7.40
2022-09-23T05:59:38.296Z,9.10
2022-09-23T06:02:06.795Z,7.10
2022-09-23T06:04:35.123Z,6.10
2022-09-23T06:07:03.816Z,6.80
2022-09-23T06:09:36.364Z,6.60
2022-09-23T06:12:06.505Z,6.30
2022-09-23T06:14:34.773Z,5.40
2022-09-23T06:17:02.930Z,7.40
2022-09-23T06:19:31.083Z,5.40
2022-09-23T06:21:59.166Z,5.70
2022-09-23T06:24:31.114Z,5.10
2022-09-23T06:27:01.137Z,7.50
2022-09-23T06:29:32.386Z,6.50
2022-09-23T06:32:00.804Z,7.10
2022-09-23T06:34:29.380Z,9.50
2022-09-23T06:36:59.730Z,7.10
2022-09-23T06:39:30.166Z,7.60
2022-09-23T06:41:58.274Z,6.30
2022-09-23T06:44:28.796Z,5.30
2022-09-23T06:46:57.144Z,9.70
2022-09-23T06:49:25.287Z,7.00
2022-09-23T06:51:53.420Z,7.00
2022-09-23T06:54:21.736Z,8.70
2022-09-23T06:56:49.844Z,7.70
2022-09-23T06:59:18.407Z,8.40
2022-09-23T07:01:48.215Z,7.20
2022-09-23T07:04:16.692Z,6.10
2022-09-23T07:06:44.819Z,6.30
2022-09-23T07:09:12.907Z,6.50
2022-09-23T07:11:41.037Z,6.90
2022-09-23T07:14:10.199Z,5.90
2022-09-23T07:16:38.282Z,7.70
2022-09-23T07:19:06.506Z,6.80
2022-09-23T07:21:34.802Z,8.30
2022-09-23T07:24:03.024Z,6.70
2022-09-23T07:26:34.214Z,5.20
2022-09-23T07:29:06.686Z,5.10
2022-09-23T07:31:39.791Z,5.70
2022-09-23T07:34:11.582Z,4.00
2022-09-23T07:36:43.410Z,4.40
2022-09-23T07:39:13.651Z,5.10
2022-09-23T07:41:44.632Z,4.30
2022-09-23T07:44:13.228Z,4.60
2022-09-23T07:46:41.765Z,4.70
2022-09-23T07:49:10.748Z,4.80
2022-09-23T07:51:41.940Z,5.40
2022-09-23T07:54:16.531Z,3.70
2022-09-23T07:56:45.212Z,3.20
2022-09-23T07:59:18.525Z,2.10
2022-09-23T08:01:52.727Z,2.60
2022-09-23T08:04:23.887Z,2.60
2022-09-23T08:06:56.069Z,2.10
2022-09-23T08:09:31.823Z,2.00
2022-09-23T08:12:00.816Z,2.30
2022-09-23T08:14:29.019Z,3.70
2022-09-23T08:16:57.550Z,4.40
2022-09-23T08:19:25.945Z,3.10
2022-09-23T08:21:54.428Z,5.20
2022-09-23T08:24:24.237Z,2.50
2022-09-23T08:26:54.365Z,3.50
2022-09-23T08:29:25.076Z,2.50
2022-09-23T08:31:53.808Z,1.80
2022-09-23T08:34:23.761Z,3.10
2022-09-23T08:36:52.473Z,2.10
2022-09-23T08:39:21.498Z,2.50
2022-09-23T08:41:57.534Z,1.80
2022-09-23T08:44:54.084Z,1.60
2022-09-23T08:47:43.813Z,2.00
2022-09-23T08:50:53.708Z,2.10
2022-09-23T08:53:38.946Z,1.30
2022-09-23T08:56:24.121Z,1.90
2022-09-23T08:59:19.168Z,1.40
2022-09-23T09:02:00.397Z,2.20
2022-09-23T09:04:43.132Z,2.40
2022-09-23T09:07:37.294Z,1.90
2022-09-23T09:10:24.229Z,2.50
2022-09-23T09:13:12.319Z,1.90
2022-09-23T09:15:50.972Z,2.40
2022-09-23T09:18:21.110Z,2.30
2022-09-23T09:21:12.736Z,2.50
2022-09-23T09:23:55.961Z,1.70
2022-09-23T09:26:32.146Z,1.40
2022-09-23T09:29:31.167Z,1.60
2022-09-23T09:32:18.513Z,1.60
2022-09-23T09:34:59.452Z,1.40
2022-09-23T09:37:44.687Z,2.70
2022-09-23T09:40:16.436Z,4.40
2022-09-23T09:42:50.136Z,1.90
2022-09-23T09:46:11.042Z,2.10
2022-09-23T09:48:56.430Z,5.10
2022-09-23T09:51:27.840Z,1.70
2022-09-23T09:54:17.422Z,2.10
2022-09-23T09:56:45.645Z,2.10
2022-09-23T09:59:25.130Z,1.90
2022-09-23T10:02:13.605Z,2.40
2022-09-23T10:04:41.822Z,2.30
2022-09-23T10:07:16.993Z,2.10
2022-09-23T10:09:50.620Z,1.60
2022-09-23T10:12:22.209Z,1.90
2022-09-23T10:14:56.324Z,2.00
2022-09-23T10:17:34.683Z,2.10
2022-09-23T10:20:15.581Z,3.10
2022-09-23T10:22:44.089Z,5.70
2022-09-23T10:25:27.589Z,2.10
2022-09-23T10:27:55.658Z,3.10
2022-09-23T10:30:28.480Z,5.20
2022-09-23T10:32:57.291Z,2.30
2022-09-23T10:35:26.724Z,2.40
2022-09-23T10:38:00.300Z,1.80
2022-09-23T10:41:00.259Z,2.20
2022-09-23T10:44:11.748Z,2.20
2022-09-23T10:46:59.386Z,2.40
2022-09-23T10:49:49.981Z,2.50
2022-09-23T10:52:59.435Z,3.30
2022-09-23T10:55:50.732Z,2.00
2022-09-23T10:58:58.328Z,1.80
2022-09-23T11:02:31.341Z,2.20
2022-09-23T11:05:15.357Z,1.70
2022-09-23T11:08:00.431Z,1.60
2022-09-23T11:10:46.624Z,2.50
2022-09-23T11:13:54.623Z,2.60
2022-09-23T11:16:39.145Z,2.90
2022-09-23T11:20:14.883Z,2.50
2022-09-23T11:23:22.188Z,2.80
2022-09-23T11:26:35.114Z,4.90
2022-09-23T11:29:21.398Z,2.50
2022-09-23T11:32:23.111Z,2.50
2022-09-23T11:35:16.324Z,1.90
2022-09-23T11:38:21.445Z,2.10
2022-09-23T11:40:54.845Z,1.40
2022-09-23T11:43:33.599Z,3.70
2022-09-23T11:46:41.630Z,1.80
2022-09-23T11:49:12.613Z,2.40
2022-09-23T11:52:19.773Z,2.50
2022-09-23T11:55:08.326Z,1.80
2022-09-23T11:57:53.686Z,2.00
2022-09-23T12:00:25.120Z,4.10
2022-09-23T12:03:54.189Z,3.80
2022-09-23T12:06:36.944Z,2.10
2022-09-23T12:09:41.018Z,3.20
2022-09-23T12:12:55.195Z,3.40
2022-09-23T12:15:41.665Z,2.60
2022-09-23T12:18:23.333Z,2.80
2022-09-23T12:21:32.778Z,2.30
2022-09-23T12:24:32.406Z,2.50
2022-09-23T12:27:07.125Z,1.80
2022-09-23T12:29:37.451Z,1.60
2022-09-23T12:32:10.158Z,1.70
2022-09-23T12:34:48.008Z,2.20
2022-09-23T12:37:38.840Z,2.40
2022-09-23T12:40:30.321Z,2.10
2022-09-23T12:43:01.268Z,1.30
2022-09-23T12:45:33.836Z,3.20
2022-09-23T12:48:18.187Z,1.50
2022-09-23T12:53:58.328Z,3.20
2022-09-23T12:56:38.731Z,2.20
2022-09-23T12:59:14.090Z,1.60
2022-09-23T13:01:43.973Z,1.60
2022-09-23T13:05:02.422Z,2.60
2022-09-23T13:07:34.203Z,2.60
2022-09-23T13:10:18.508Z,1.60
2022-09-23T13:12:48.211Z,2.00
2022-09-23T13:15:31.155Z,2.30
2022-09-23T13:18:20.829Z,1.60
2022-09-23T13:20:51.652Z,1.80
2022-09-23T13:23:24.064Z,3.70
2022-09-23T13:26:02.224Z,1.50
2022-09-23T13:28:37.173Z,2.40
2022-09-23T13:31:17.164Z,2.60
2022-09-23T13:34:06.810Z,1.60
2022-09-23T13:36:45.732Z,2.40
2022-09-23T13:39:16.804Z,1.90
2022-09-23T13:41:45.854Z,2.10
2022-09-23T13:44:20.226Z,2.80
2022-09-23T13:46:58.190Z,2.00
2022-09-23T13:49:32.471Z,3.20
2022-09-23T13:52:02.103Z,1.60
2022-09-23T13:54:45.832Z,3.60
2022-09-23T13:57:35.012Z,1.80
2022-09-23T14:00:21.002Z,1.20
2022-09-23T14:02:49.128Z,2.60
2022-09-23T14:05:33.324Z,1.10
2022-09-23T14:08:02.617Z,1.70
2022-09-23T14:10:31.400Z,2.00
2022-09-23T14:12:59.792Z,1.80
2022-09-23T14:15:28.041Z,2.70
2022-09-23T14:18:07.702Z,2.10
2022-09-23T14:20:50.354Z,2.20
2022-09-23T14:23:18.897Z,1.70
2022-09-23T14:25:47.732Z,1.70
2022-09-23T14:28:20.317Z,2.10
2022-09-23T14:30:54.092Z,3.40
2022-09-23T14:33:41.567Z,2.70
2022-09-23T14:36:34.512Z,3.40
2022-09-23T14:41:43.883Z,4.00
2022-09-23T14:44:23.204Z,3.10
2022-09-23T14:46:58.514Z,2.20
2022-09-23T14:49:27.875Z,2.80
2022-09-23T14:52:03.169Z,2.30
2022-09-23T14:54:41.632Z,2.70
2022-09-23T14:57:31.933Z,3.40
2022-09-23T15:00:02.558Z,2.50
2022-09-23T15:02:40.272Z,2.50
2022-09-23T15:05:15.841Z,2.50
2022-09-23T15:07:56.126Z,2.10
2022-09-23T15:10:33.742Z,2.30
2022-09-23T15:13:09.323Z,1.70
2022-09-23T15:15:37.659Z,2.40
2022-09-23T15:18:20.493Z,1.50
2022-09-23T15:21:10.241Z,3.80
2022-09-23T15:23:41.974Z,2.20
2022-09-23T15:27:01.633Z,4.30
2022-09-23T15:29:33.508Z,3.70
2022-09-23T15:32:02.060Z,3.10
2022-09-23T15:34:31.799Z,2.50
2022-09-23T15:37:00.116Z,3.00
2022-09-23T15:39:35.704Z,3.80
2022-09-23T15:42:06.069Z,4.40
2022-09-23T15:44:35.341Z,2.50
2022-09-23T15:47:04.455Z,2.80
2022-09-23T15:49:39.200Z,2.00
2022-09-23T15:52:10.651Z,3.00
2022-09-23T15:54:39.319Z,3.30
2022-09-23T15:57:07.712Z,2.90
2022-09-23T15:59:38.277Z,3.60
2022-09-23T16:02:21.310Z,3.20
2022-09-23T16:04:52.618Z,2.70
2022-09-23T16:07:21.403Z,2.80
2022-09-23T16:09:49.511Z,3.30
2022-09-23T16:12:17.785Z,2.40
2022-09-23T16:14:45.967Z,4.70
2022-09-23T16:17:14.751Z,3.30
2022-09-23T16:19:43.856Z,5.50
2022-09-23T16:22:16.086Z,4.20
2022-09-23T16:24:44.182Z,5.30
2022-09-23T16:27:18.545Z,3.10
2022-09-23T16:29:46.641Z,4.10
2022-09-23T16:32:16.916Z,2.80
2022-09-23T16:34:48.332Z,2.30
2022-09-23T16:37:16.779Z,4.40
2022-09-23T16:39:45.077Z,4.00
2022-09-23T16:42:13.467Z,4.70
2022-09-23T16:44:41.709Z,4.70
2022-09-23T16:47:09.841Z,4.70
2022-09-23T16:49:38.058Z,4.70
2022-09-23T16:52:06.505Z,7.20
2022-09-23T16:54:37.408Z,3.80
2022-09-23T16:57:05.525Z,4.30
2022-09-23T16:59:53.644Z,5.40
2022-09-23T17:02:40.375Z,5.50
2022-09-23T17:05:11.099Z,5.80
2022-09-23T17:07:39.204Z,5.80
2022-09-23T17:10:08.369Z,4.10
2022-09-23T17:12:36.710Z,5.50
2022-09-23T17:15:07.500Z,6.30
2022-09-23T17:17:39.633Z,6.50
2022-09-23T17:20:08.181Z,4.30
2022-09-23T17:22:36.415Z,4.70
2022-09-23T17:25:05.277Z,6.20
2022-09-23T17:27:33.381Z,5.80
2022-09-23T17:30:01.593Z,4.20
2022-09-23T17:32:30.072Z,4.70
2022-09-23T17:35:04.420Z,3.70
2022-09-23T17:37:33.329Z,2.70
2022-09-23T17:40:01.855Z,3.80
2022-09-23T17:42:30.035Z,4.30
2022-09-23T17:44:59.351Z,3.90
2022-09-23T17:47:27.614Z,3.30
2022-09-23T17:49:56.353Z,3.50
2022-09-23T17:52:24.492Z,5.50
2022-09-23T17:54:55.095Z,4.30
2022-09-23T17:57:23.315Z,3.90
2022-09-23T17:59:53.764Z,4.90
2022-09-23T18:02:22.631Z,6.20
2022-09-23T18:04:51.010Z,5.50
2022-09-23T18:07:19.224Z,6.70
2022-09-23T18:09:47.324Z,5.90
2022-09-23T18:12:16.273Z,5.80
2022-09-23T18:14:45.354Z,5.10
2022-09-23T18:17:13.477Z,4.20
2022-09-23T18:19:41.618Z,6.50
2022-09-23T18:22:09.822Z,5.70
2022-09-23T18:24:41.139Z,4.90
2022-09-23T18:27:09.610Z,4.60
2022-09-23T18:29:37.737Z,4.50
2022-09-23T18:32:05.968Z,5.60
2022-09-23T18:34:34.385Z,4.60
2022-09-23T18:37:02.482Z,5.00
2022-09-23T18:39:30.598Z,5.30
2022-09-23T18:41:58.773Z,4.50
2022-09-23T18:44:26.879Z,5.90
2022-09-23T18:46:55.012Z,6.00
2022-09-23T18:49:41.520Z,6.00
2022-09-23T18:52:09.896Z,5.30
2022-09-23T18:54:38.000Z,6.90
2022-09-23T18:57:06.159Z,4.50
2022-09-23T18:59:34.325Z,5.40
2022-09-23T19:02:02.849Z,6.70
2022-09-23T19:04:31.804Z,7.10
2022-09-23T19:07:00.383Z,7.10
2022-09-23T19:09:28.526Z,8.00
2022-09-23T19:11:57.763Z,9.20
2022-09-23T19:14:26.762Z,17.20
2022-09-23T19:16:54.866Z,27.30
2022-09-23T19:19:23.126Z,22.60
2022-09-23T19:21:51.457Z,16.60
2022-09-23T19:24:20.988Z,7.50
2022-09-23T19:26:50.421Z,8.80
2022-09-23T19:29:19.831Z,10.30
2022-09-23T19:31:49.544Z,9.40
2022-09-23T19:34:23.794Z,10.20
2022-09-23T19:36:57.313Z,9.80
2022-09-23T19:39:31.243Z,9.30
2022-09-23T19:41:59.384Z,8.30
2022-09-23T19:44:27.880Z,7.20
2022-09-23T19:46:57.379Z,10.00
2022-09-23T19:49:26.388Z,9.00
2022-09-23T19:51:56.061Z,9.10
2022-09-23T19:54:27.429Z,10.70
2022-09-23T19:56:55.990Z,11.10
2022-09-23T19:59:26.488Z,10.30
2022-09-23T20:01:54.995Z,11.20
2022-09-23T20:04:23.329Z,11.80
2022-09-23T20:06:51.602Z,11.20
2022-09-23T20:09:19.993Z,12.30
2022-09-23T20:11:48.204Z,7.40
2022-09-23T20:14:19.512Z,9.00
2022-09-23T20:16:47.632Z,8.90
2022-09-23T20:19:16.141Z,11.00
2022-09-23T20:21:44.257Z,9.30
2022-09-23T20:24:13.121Z,8.50
2022-09-23T20:26:59.528Z,10.60
2022-09-23T20:29:27.627Z,9.80
2022-09-23T20:31:58.752Z,9.30
2022-09-23T20:34:29.985Z,11.00
2022-09-23T20:36:59.323Z,11.20
2022-09-23T20:39:28.387Z,11.70
2022-09-23T20:41:56.555Z,10.30
2022-09-23T20:44:25.163Z,9.90
2022-09-23T20:46:53.306Z,12.60
2022-09-23T20:49:21.461Z,9.40
2022-09-23T20:51:50.935Z,11.40
2022-09-23T20:54:19.259Z,9.50
2022-09-23T20:56:47.931Z,9.50
2022-09-23T20:59:18.128Z,10.30
2022-09-23T21:01:46.759Z,8.40
2022-09-23T21:04:15.306Z,9.00
2022-09-23T21:06:43.499Z,9.70
2022-09-23T21:09:11.647Z,9.00
2022-09-23T21:11:39.992Z,9.40
2022-09-23T21:14:08.297Z,8.80
2022-09-23T21:16:36.462Z,8.70
2022-09-23T21:19:07.457Z,10.40
2022-09-23T21:21:36.844Z,11.10
2022-09-23T21:24:39.794Z,9.40
2022-09-23T21:26:53.657Z,8.70
2022-09-23T21:29:21.910Z,9.90
2022-09-23T21:31:50.138Z,11.10
2022-09-23T21:34:19.455Z,9.30
2022-09-23T21:36:48.449Z,10.00
2022-09-23T21:39:16.677Z,11.00
2022-09-23T21:41:45.290Z,10.70
2022-09-23T21:44:13.422Z,11.80
2022-09-23T21:46:41.917Z,13.40
2022-09-23T21:49:10.132Z,14.90
2022-09-23T21:51:41.267Z,11.30
2022-09-23T21:54:16.865Z,14.10
2022-09-23T21:56:45.247Z,12.30
2022-09-23T21:59:13.341Z,13.00
2022-09-23T22:01:44.930Z,11.00
2022-09-23T22:04:17.306Z,12.70
2022-09-23T22:06:46.943Z,11.60
2022-09-23T22:09:21.013Z,11.70
2022-09-23T22:12:07.767Z,11.70
2022-09-23T22:14:36.375Z,18.00
2022-09-23T22:17:07.054Z,12.00
2022-09-23T22:19:40.183Z,13.70
2022-09-23T22:22:14.104Z,13.60
2022-09-23T22:24:44.529Z,13.10
2022-09-23T22:27:15.483Z,13.40
2022-09-23T22:30:02.367Z,16.60
2022-09-23T22:33:07.092Z,15.80
2022-09-23T22:35:35.201Z,15.20
2022-09-23T22:38:03.330Z,16.60
2022-09-23T22:40:31.470Z,16.30
2022-09-23T22:43:01.156Z,15.90
2022-09-23T22:45:29.326Z,14.50
2022-09-23T22:47:57.536Z,18.20
2022-09-23T22:50:25.627Z,16.20
2022-09-23T22:52:54.049Z,14.00
2022-09-23T22:55:22.258Z,14.80
2022-09-23T22:57:51.580Z,13.80
2022-09-23T23:00:19.908Z,15.90
2022-09-23T23:02:48.000Z,17.40
2022-09-23T23:05:16.174Z,14.20
2022-09-23T23:07:44.281Z,13.80
2022-09-23T23:10:12.388Z,14.30
2022-09-23T23:12:42.088Z,12.50
2022-09-23T23:15:12.873Z,13.90
2022-09-23T23:17:48.015Z,14.10
2022-09-23T23:20:17.172Z,9.80
2022-09-23T23:22:45.257Z,14.20
2022-09-23T23:25:13.361Z,14.90
2022-09-23T23:27:41.520Z,11.40
2022-09-23T23:30:10.260Z,15.00
2022-09-23T23:32:38.526Z,12.70
2022-09-23T23:35:07.233Z,11.60
2022-09-23T23:37:35.407Z,10.80
2022-09-23T23:40:05.503Z,13.00
2022-09-23T23:42:34.638Z,9.50
2022-09-23T23:45:02.785Z,11.20
2022-09-23T23:47:31.161Z,12.50
2022-09-23T23:49:59.258Z,10.50
2022-09-23T23:52:27.358Z,10.40
2022-09-23T23:54:55.516Z,13.40
2022-09-23T23:57:23.646Z,12.10
2022-09-23T23:59:51.731Z,12.60
